This is the latest recevied weather packets stored in our database for station/object KD7JB. If no packets are shown the sender has not sent any weather packets the latest 10 day(s).
| Time | Temp. | Humidity | Pressure | Rain* | Wind** | Luminosity | Snow |
|---|---|---|---|---|---|---|---|
| 1777650230 | 13.89° C | 40% | 1179.7 hPa | 0 mm | - | 355 W/m² | - |
| 1777649927 | 13.33° C | 43% | 1179.7 hPa | 0 mm | - | 344 W/m² | - |
| 1777649625 | 13.89° C | 41% | 1179.3 hPa | 0 mm | - | 333 W/m² | - |
| 1777649320 | 13.33° C | 42% | 1179.8 hPa | 0 mm | - | 303 W/m² | - |
| 1777649018 | 13.33° C | 40% | 1179.7 hPa | 0 mm | - | 301 W/m² | - |
| 1777648715 | 13.33° C | 42% | 1179.8 hPa | 0 mm | - | 288 W/m² | - |
| 1777648411 | 13.33° C | 42% | 1179.7 hPa | 0 mm | - | 273 W/m² | - |
| 1777648107 | 13.33° C | 42% | 1179.6 hPa | 0 mm | - | 267 W/m² | - |
| 1777647804 | 13.33° C | 42% | 1179.6 hPa | 0 mm | - | 252 W/m² | - |
| 1777647500 | 12.78° C | 44% | 1179.6 hPa | 0 mm | - | 233 W/m² | - |
| 1777647197 | 12.78° C | 44% | 1179.7 hPa | 0 mm | - | 200 W/m² | - |
| 1777646894 | 12.78° C | 43% | 1179.4 hPa | 0 mm | - | 178 W/m² | - |
| 1777646589 | 12.78° C | 44% | 1179.7 hPa | 0 mm | - | 162 W/m² | - |
| 1777646287 | 12.78° C | 46% | 1179.6 hPa | 0 mm | - | 157 W/m² | - |
| 1777645983 | 12.78° C | 46% | 1179.3 hPa | 0 mm | - | 145 W/m² | - |
| 1777645680 | 13.33° C | 42% | 1179.4 hPa | 0 mm | - | 136 W/m² | - |
| 1777645376 | 13.89° C | 41% | 1179.4 hPa | 0 mm | - | 141 W/m² | - |
| 1777645072 | 12.78° C | 43% | 1179.3 hPa | 0 mm | - | 127 W/m² | - |
| 1777644769 | 12.22° C | 42% | 1179.3 hPa | 0 mm | - | 109 W/m² | - |
| 1777644466 | 11.67° C | 44% | 1179.3 hPa | 0 mm | - | 90 W/m² | - |
| 1777644163 | 11.67° C | 44% | 1179.1 hPa | 0 mm | - | 71 W/m² | - |
| 1777643859 | 11.11° C | 45% | 1179.2 hPa | 0 mm | - | 67 W/m² | - |
| 1777643557 | 11.11° C | 44% | 1179.2 hPa | 0 mm | - | 61 W/m² | - |
| 1777643253 | 11.67° C | 44% | 1179.1 hPa | 0 mm | - | 37 W/m² | - |
| 1777642950 | 11.67° C | 43% | 1179 hPa | 0 mm | - | 41 W/m² | - |
* Rain latest hour (hover to see other rain measurements)
** Current wind speed in m/s (hover to see current wind gust speed)